Time;durP1;ratioP1;P1;durP2;ratioP2;P2;SDS_P1;SDS_P2;PMS_P1;PMS_P2;Temp;Humidity;BMP_temperature;BMP_pressure;BME280_temperature;BME280_humidity;BME280_pressure;Samples;Min_cycle;Max_cycle;Signal;HPM_P1;HPM_P2
2022/01/18 00:01:25;;;;;;;;;;;;;;;2.06;100.00;98422.81;4963833;28;20034;-65
2022/01/18 00:03:51;;;;;;;14.60;9.70;;;;;;;2.03;100.00;98427.94;4969528;28;20719;-65
2022/01/18 00:06:16;;;;;;;13.25;8.82;;;;;;;1.96;100.00;98424.69;4972145;28;20128;-66
2022/01/18 00:08:42;;;;;;;16.02;9.93;;;;;;;1.97;100.00;98429.03;4975409;28;20623;-65
2022/01/18 00:11:07;;;;;;;13.63;9.63;;;;;;;1.93;100.00;98434.16;4972031;28;20067;-65
2022/01/18 00:13:42;;;;;;;14.45;9.50;;;;;;;1.83;100.00;98434.94;4975884;28;20038;-66
2022/01/18 00:16:23;;;;;;;16.85;9.85;;;;;;;1.68;100.00;98443.03;4970204;28;20468;-66
2022/01/18 00:18:51;;;;;;;15.45;9.35;;;;;;;1.57;100.00;98444.03;4978139;28;20395;-66
2022/01/18 00:21:27;;;;;;;15.00;8.75;;;;;;;1.57;100.00;98444.03;4955353;28;20034;-66
2022/01/18 00:23:56;;;;;;;14.10;9.13;;;;;;;1.68;100.00;98448.44;4974327;28;20057;-66
2022/01/18 00:26:21;;;;;;;16.60;9.17;;;;;;;1.79;100.00;98450.06;4967180;28;20047;-66
2022/01/18 00:28:55;;;;;;;14.93;8.70;;;;;;;1.79;100.00;98444.66;4974844;28;20048;-66
2022/01/18 00:34:27;;;;;;;14.52;8.43;;;;;;;1.69;100.00;98441.94;4962765;28;20599;-65
2022/01/18 00:39:29;;;;;;;13.77;9.00;;;;;;;1.98;100.00;98436.88;4970267;28;20077;-65
2022/01/18 00:41:55;;;;;;;17.08;10.10;;;;;;;2.01;100.00;98440.94;4971292;28;20655;-67
2022/01/18 00:44:21;;;;;;;15.02;9.15;;;;;;;1.88;100.00;98442.25;4971274;28;20049;-66
2022/01/18 00:46:46;;;;;;;14.88;9.50;;;;;;;1.66;100.00;98442.47;4972771;28;20137;-66
2022/01/18 00:49:13;;;;;;;16.77;10.30;;;;;;;1.68;100.00;98446.53;4957815;28;20048;-68
2022/01/18 00:51:41;;;;;;;15.60;9.77;;;;;;;1.71;100.00;98442.47;4972879;28;20046;-67
2022/01/18 00:54:09;;;;;;;14.48;9.25;;;;;;;1.69;100.00;98447.34;4977885;28;20157;-66
2022/01/18 00:56:39;;;;;;;18.85;10.45;;;;;;;1.71;100.00;98442.47;4967995;28;20097;-68
2022/01/18 00:59:06;;;;;;;18.90;9.98;;;;;;;1.67;100.00;98439.50;4957672;28;20042;-65
2022/01/18 01:01:34;;;;;;;15.73;10.50;;;;;;;1.56;100.00;98445.94;4963305;28;20051;-67
2022/01/18 01:04:02;;;;;;;19.15;10.90;;;;;;;1.44;100.00;98439.97;4963498;28;20157;-67
2022/01/18 01:06:31;;;;;;;19.17;10.27;;;;;;;1.39;100.00;98440.75;4959558;28;20078;-67
2022/01/18 01:08:57;;;;;;;17.58;10.75;;;;;;;1.45;100.00;98455.91;4964267;28;20050;-67
2022/01/18 01:11:24;;;;;;;19.00;10.73;;;;;;;1.49;100.00;98453.47;4958992;28;20803;-68
2022/01/18 01:13:53;;;;;;;15.43;9.57;;;;;;;1.36;100.00;98464.78;4962315;28;20050;-67
2022/01/18 01:16:49;;;;;;;18.13;12.40;;;;;;;1.24;100.00;98454.19;4959129;28;20094;-68
2022/01/18 01:43:35;;;;;;;16.45;10.85;;;;;;;1.09;100.00;98428.75;4977115;28;20442;-66
2022/01/18 01:46:02;;;;;;;16.60;9.77;;;;;;;1.12;100.00;98425.53;4964588;28;20038;-68
2022/01/18 01:48:28;;;;;;;16.65;10.02;;;;;;;1.34;100.00;98430.75;4977934;28;20077;-68
2022/01/18 01:51:01;;;;;;;16.13;10.30;;;;;;;1.56;100.00;98442.44;4982955;28;20070;-68
2022/01/18 01:53:26;;;;;;;15.80;9.90;;;;;;;1.61;100.00;98442.47;4976624;28;20136;-67
2022/01/18 01:55:53;;;;;;;15.75;10.20;;;;;;;1.64;100.00;98442.75;4963630;28;20088;-67
2022/01/18 01:58:23;;;;;;;18.33;9.48;;;;;;;1.60;100.00;98436.22;4974892;28;20233;-68
2022/01/18 02:00:51;;;;;;;14.18;9.60;;;;;;;1.61;100.00;98428.97;4982136;28;20045;-69
2022/01/18 02:03:18;;;;;;;15.43;9.45;;;;;;;1.67;100.00;98428.69;4974320;28;20193;-67
2022/01/18 02:05:43;;;;;;;16.15;10.70;;;;;;;1.61;100.00;98421.66;4976886;28;20050;-66
2022/01/18 02:08:10;;;;;;;15.90;10.13;;;;;;;1.52;100.00;98425.94;4982828;28;20042;-68
2022/01/18 02:10:37;;;;;;;14.23;9.07;;;;;;;1.36;100.00;98427.78;5002234;28;20042;-66
2022/01/18 02:13:06;;;;;;;15.63;9.30;;;;;;;1.07;100.00;98425.50;4987628;28;20506;-65
2022/01/18 02:15:37;;;;;;;12.98;8.48;;;;;;;0.98;100.00;98420.88;4981536;28;20088;-69
2022/01/18 02:23:30;;;;;;;18.70;9.18;;;;;;;0.58;100.00;98412.28;4979448;28;20070;-68
2022/01/18 02:25:57;;;;;;;15.95;8.60;;;;;;;0.61;100.00;98413.63;4981083;28;20046;-68
2022/01/18 02:28:24;;;;;;;15.25;10.07;;;;;;;0.59;100.00;98408.47;4972054;28;20523;-68
2022/01/18 02:30:50;;;;;;;14.57;8.88;;;;;;;0.70;100.00;98409.38;4979538;28;20125;-68
2022/01/18 02:33:16;;;;;;;14.48;8.57;;;;;;;0.74;100.00;98407.78;4973803;28;20038;-68
2022/01/18 02:35:44;;;;;;;14.50;8.82;;;;;;;0.79;100.00;98413.19;4980519;28;20047;-68
2022/01/18 02:38:10;;;;;;;13.77;8.65;;;;;;;0.93;100.00;98416.25;4976142;28;20049;-69
2022/01/18 02:40:35;;;;;;;13.10;7.93;;;;;;;1.13;100.00;98408.28;4964832;28;20046;-69
2022/01/18 02:45:53;;;;;;;16.80;8.45;;;;;;;1.32;100.00;98408.59;4981035;28;20133;-69
2022/01/18 02:48:19;;;;;;;;;;;;;;;1.26;100.00;98411.53;4977168;28;20046;-69
2022/01/18 02:50:44;;;;;;;16.95;8.07;;;;;;;1.19;100.00;98413.66;4982641;28;19913;-69
2022/01/18 02:53:10;;;;;;;12.93;7.22;;;;;;;1.21;100.00;98416.94;4975355;28;20034;-68
2022/01/18 02:55:35;;;;;;;12.35;8.40;;;;;;;1.10;100.00;98413.38;4981433;28;20042;-67
2022/01/18 02:58:08;;;;;;;12.18;7.63;;;;;;;0.99;100.00;98415.22;4982401;28;20122;-69
2022/01/18 03:03:10;;;;;;;11.50;7.30;;;;;;;1.00;100.00;98416.81;4978943;28;20153;-68
2022/01/18 03:03:27;;;;;;;12.40;7.68;;;;;;;1.07;100.00;98417.41;4976565;28;20125;-67
2022/01/18 03:05:54;;;;;;;11.40;6.97;;;;;;;1.05;100.00;98416.06;4981541;28;20437;-69
2022/01/18 03:08:19;;;;;;;11.10;7.35;;;;;;;1.09;100.00;98420.66;4976481;28;20081;-67
2022/01/18 03:10:45;;;;;;;13.30;6.97;;;;;;;1.23;100.00;98410.19;4981003;28;20042;-68
2022/01/18 03:13:10;;;;;;;20.35;7.75;;;;;;;1.43;100.00;98408.66;4974987;28;20050;-68
2022/01/18 03:15:36;;;;;;;12.20;7.32;;;;;;;1.56;100.00;98413.53;4979961;28;20045;-67
2022/01/18 03:18:03;;;;;;;10.95;7.15;;;;;;;1.59;100.00;98412.22;4981234;28;20411;-68
2022/01/18 03:20:29;;;;;;;10.02;6.60;;;;;;;1.61;100.00;98415.44;4979330;28;20042;-68
2022/01/18 03:22:55;;;;;;;12.90;6.50;;;;;;;1.65;100.00;98414.63;4981534;28;20076;-68
2022/01/18 03:25:40;;;;;;;18.25;7.28;;;;;;;1.54;100.00;98423.78;4975723;28;20077;-67
2022/01/18 03:28:08;;;;;;;13.57;6.63;;;;;;;1.41;100.00;98427.00;4975300;28;20074;-68
2022/01/18 03:30:42;;;;;;;11.02;7.15;;;;;;;1.17;100.00;98422.06;4979820;28;20038;-68
2022/01/18 03:33:11;;;;;;;14.35;7.38;;;;;;;1.14;100.00;98430.66;4975990;28;20042;-66
2022/01/18 03:35:36;;;;;;;11.77;7.22;;;;;;;1.18;100.00;98415.56;4979009;28;20046;-67
2022/01/18 03:38:02;;;;;;;10.95;7.10;;;;;;;1.20;100.00;98418.00;4998649;28;20073;-67
2022/01/18 03:40:28;;;;;;;15.30;8.07;;;;;;;1.21;100.00;98411.53;4947208;28;20732;-68
2022/01/18 03:42:55;;;;;;;12.00;6.78;;;;;;;1.20;100.00;98415.31;4981366;28;20034;-68
2022/01/18 03:45:24;;;;;;;10.80;6.50;;;;;;;1.25;100.00;98418.03;4971637;28;20418;-66
2022/01/18 03:47:50;;;;;;;9.50;5.85;;;;;;;1.25;100.00;98412.63;4947470;28;20134;-70
2022/01/18 03:50:16;;;;;;;15.00;6.82;;;;;;;1.24;100.00;98409.13;4962618;28;20042;-68
2022/01/18 03:52:44;;;;;;;11.07;7.18;;;;;;;1.19;100.00;98409.09;4977933;28;20038;-69
2022/01/18 03:55:12;;;;;;;12.13;6.90;;;;;;;1.16;100.00;98412.31;4975589;28;20053;-69
2022/01/18 03:57:39;;;;;;;11.10;7.57;;;;;;;1.26;100.00;98415.06;4979851;28;20042;-68
2022/01/18 04:00:07;;;;;;;11.93;7.55;;;;;;;1.12;100.00;98425.53;4976642;28;20054;-66
2022/01/18 04:02:33;;;;;;;12.38;8.52;;;;;;;0.95;100.00;98420.31;4980667;28;20050;-66
2022/01/18 04:05:00;;;;;;;13.07;8.15;;;;;;;0.89;100.00;98423.25;4981516;28;20109;-66
2022/01/18 04:07:26;;;;;;;13.50;8.10;;;;;;;0.97;100.00;98424.63;4976700;28;20038;-66
2022/01/18 04:09:51;;;;;;;12.00;7.40;;;;;;;1.07;100.00;98425.50;4979983;28;20458;-65
2022/01/18 04:12:17;;;;;;;12.25;7.93;;;;;;;1.16;100.00;98427.72;4975662;28;20050;-67
2022/01/18 04:14:43;;;;;;;13.05;8.30;;;;;;;1.16;100.00;98425.81;4977950;28;20112;-66
2022/01/18 04:17:45;;;;;;;15.25;8.63;;;;;;;1.17;100.00;98422.06;4976418;28;20046;-66
2022/01/18 04:28:17;;;;;;;15.50;9.15;;;;;;;1.01;100.00;98414.94;4979201;28;20034;-66
2022/01/18 04:30:42;;;;;;;13.27;8.10;;;;;;;1.14;100.00;98409.06;4984179;28;20318;-66
2022/01/18 04:33:07;;;;;;;17.60;9.32;;;;;;;1.18;100.00;98412.88;4978552;28;20129;-66
2022/01/18 04:35:33;;;;;;;22.77;8.98;;;;;;;1.11;100.00;98407.69;4984309;28;20038;-67
2022/01/18 04:37:58;;;;;;;15.82;8.85;;;;;;;0.92;100.00;98411.94;4980071;28;20042;-67
2022/01/18 04:40:29;;;;;;;15.35;8.18;;;;;;;0.88;100.00;98416.22;4978669;28;20049;-66
2022/01/18 04:48:28;;;;;;;12.55;6.72;;;;;;;0.57;100.00;98418.72;4980137;28;20041;-64
2022/01/18 04:50:58;;;;;;;;;;;;;;;0.49;100.00;98413.84;4967009;28;20578;-66
2022/01/18 04:53:26;;;;;;;10.18;5.97;;;;;;;0.40;100.00;98421.59;4979609;28;19957;-66
2022/01/18 04:55:55;;;;;;;14.48;7.65;;;;;;;0.26;100.00;98426.59;4984392;28;20046;-65
2022/01/18 04:58:24;;;;;;;13.77;7.67;;;;;;;0.15;100.00;98422.19;4978088;28;20105;-66
2022/01/18 05:00:53;;;;;;;15.68;8.20;;;;;;;0.07;100.00;98420.75;4965983;28;20034;-66
2022/01/18 05:03:18;;;;;;;21.58;9.65;;;;;;;0.35;100.00;98426.94;4978828;28;20046;-66
2022/01/18 05:05:44;;;;;;;16.20;8.27;;;;;;;0.48;100.00;98425.66;4992230;28;20082;-65
2022/01/18 05:08:13;;;;;;;22.00;8.52;;;;;;;0.36;100.00;98428.53;4985502;28;20043;-66
2022/01/18 05:10:40;;;;;;;13.55;7.57;;;;;;;0.20;100.00;98427.63;4984027;28;20117;-66
2022/01/18 05:13:36;;;;;;;15.63;8.25;;;;;;;0.23;100.00;98421.69;4979083;28;20042;-66
2022/01/18 05:21:32;;;;;;;16.33;8.13;;;;;;;0.00;100.00;98417.47;4977851;28;20918;-66
2022/01/18 05:23:57;;;;;;;14.00;7.95;;;;;;;-0.09;100.00;98408.22;4983246;28;20471;-67
2022/01/18 05:26:24;;;;;;;14.60;7.55;;;;;;;-0.11;100.00;98416.56;4978613;28;20459;-67
2022/01/18 05:28:49;;;;;;;18.92;8.88;;;;;;;-0.15;100.00;98415.44;4983624;28;20514;-67
2022/01/18 05:31:15;;;;;;;19.35;8.40;;;;;;;-0.25;100.00;98418.84;4977110;28;20042;-67
2022/01/18 05:33:42;;;;;;;15.77;8.27;;;;;;;-0.29;100.00;98415.06;4982205;28;20047;-66
2022/01/18 05:36:09;;;;;;;16.63;8.07;;;;;;;-0.35;100.00;98418.75;4977816;28;20046;-66
2022/01/18 05:38:35;;;;;;;17.55;8.45;;;;;;;-0.42;100.00;98418.13;4983372;28;20042;-68
2022/01/18 05:41:03;;;;;;;15.23;8.68;;;;;;;-0.45;100.00;98410.53;4980158;28;20388;-67
2022/01/18 05:43:28;;;;;;;17.40;9.65;;;;;;;-0.43;100.00;98414.63;4980900;28;20137;-67
2022/01/18 05:45:54;;;;;;;14.25;8.43;;;;;;;-0.44;100.00;98418.38;4981720;28;20125;-67
2022/01/18 05:48:19;;;;;;;14.95;8.85;;;;;;;-0.46;100.00;98420.50;4975950;28;20042;-67
2022/01/18 05:50:45;;;;;;;18.05;9.27;;;;;;;-0.45;100.00;98416.75;4982680;28;20053;-67
2022/01/18 05:53:10;;;;;;;19.90;9.57;;;;;;;-0.45;100.00;98418.63;4976283;28;20046;-67
2022/01/18 05:55:36;;;;;;;17.63;9.40;;;;;;;-0.33;100.00;98411.22;4979317;28;20038;-68
2022/01/18 05:58:02;;;;;;;18.55;9.65;;;;;;;-0.21;100.00;98409.19;4976408;28;20098;-66
2022/01/18 06:00:30;;;;;;;19.70;10.20;;;;;;;-0.31;100.00;98408.28;4976544;28;20558;-67
2022/01/18 06:08:08;;;;;;;16.92;9.25;;;;;;;-0.50;100.00;98405.94;4977049;28;20053;-68
2022/01/18 06:10:33;;;;;;;17.40;9.32;;;;;;;-0.62;100.00;98394.50;4981533;28;20431;-67
2022/01/18 06:13:03;;;;;;;21.23;10.18;;;;;;;-0.59;100.00;98383.22;4980878;28;20133;-67
2022/01/18 06:15:30;;;;;;;16.60;9.02;;;;;;;-0.61;100.00;98391.56;4981553;28;20053;-68
2022/01/18 06:17:56;;;;;;;21.63;11.10;;;;;;;-0.66;100.00;98390.69;4978066;28;20050;-69
2022/01/18 06:20:22;;;;;;;21.02;10.50;;;;;;;-0.74;100.00;98377.66;4978530;28;20503;-68
2022/01/18 06:22:51;;;;;;;18.70;9.88;;;;;;;-0.74;100.00;98386.53;5000941;28;20046;-65
2022/01/18 06:25:17;;;;;;;19.02;10.40;;;;;;;-0.70;100.00;98376.94;4989204;28;20042;-67
2022/01/18 06:27:43;;;;;;;20.13;10.50;;;;;;;-0.70;100.00;98385.00;4981660;28;20052;-67
2022/01/18 06:30:10;;;;;;;23.98;11.55;;;;;;;-0.64;100.00;98386.66;4976875;28;20042;-67
2022/01/18 06:32:40;;;;;;;22.83;10.88;;;;;;;-0.57;100.00;98385.69;4980369;28;20069;-67
2022/01/18 06:35:07;;;;;;;21.63;11.20;;;;;;;-0.50;100.00;98381.72;4978840;28;20038;-67
2022/01/18 06:37:34;;;;;;;21.15;11.20;;;;;;;-0.60;100.00;98393.16;4990134;28;20574;-68
2022/01/18 06:40:01;;;;;;;21.20;11.40;;;;;;;-0.62;100.00;98397.19;4980655;28;20380;-68
2022/01/18 06:42:26;;;;;;;25.15;11.30;;;;;;;-0.70;100.00;98392.22;4975891;28;20400;-67
2022/01/18 06:44:52;;;;;;;18.67;10.05;;;;;;;-0.72;100.00;98394.38;4978622;28;20084;-68
2022/01/18 06:47:18;;;;;;;21.15;10.48;;;;;;;-0.85;100.00;98391.00;4965171;28;20499;-67
2022/01/18 06:49:44;;;;;;;20.73;10.77;;;;;;;-0.94;100.00;98399.75;4982454;28;20046;-67
2022/01/18 06:52:09;;;;;;;18.98;10.48;;;;;;;-0.97;100.00;98406.47;4972419;28;20049;-66
2022/01/18 06:54:35;;;;;;;21.02;11.10;;;;;;;-0.96;100.00;98410.75;4977683;28;20069;-67
2022/01/18 06:57:00;;;;;;;24.50;11.23;;;;;;;-1.01;100.00;98400.78;4980816;28;20038;-67
2022/01/18 06:59:26;;;;;;;20.65;10.30;;;;;;;-0.94;100.00;98408.63;4975419;28;20846;-68
2022/01/18 07:01:51;;;;;;;20.33;11.10;;;;;;;-0.83;100.00;98405.03;4979883;28;20091;-68
2022/01/18 07:04:17;;;;;;;16.55;9.30;;;;;;;-0.79;100.00;98403.47;4977528;28;20075;-67
2022/01/18 07:06:45;;;;;;;17.33;10.18;;;;;;;-0.71;100.00;98412.16;4982340;28;20054;-67
2022/01/18 07:09:12;;;;;;;13.80;8.85;;;;;;;-0.69;100.00;98408.13;4975118;28;20038;-67
2022/01/18 07:11:37;;;;;;;16.70;9.60;;;;;;;-0.66;100.00;98406.84;4981044;28;20137;-67
2022/01/18 07:14:03;;;;;;;14.32;9.82;;;;;;;-0.68;100.00;98417.03;4979192;28;20454;-67
2022/01/18 07:16:28;;;;;;;17.10;9.23;;;;;;;-0.72;100.00;98411.34;4975146;28;20073;-67
2022/01/18 07:18:54;;;;;;;16.73;9.63;;;;;;;-0.77;100.00;98413.97;4980624;28;20039;-67
2022/01/18 07:21:19;;;;;;;19.00;10.88;;;;;;;-1.00;100.00;98412.34;4976275;28;20097;-67
2022/01/18 07:23:45;;;;;;;18.40;9.82;;;;;;;-0.98;100.00;98407.53;4996020;28;20206;-67
2022/01/18 07:26:10;;;;;;;19.05;10.55;;;;;;;-0.88;100.00;98404.97;4972981;28;20042;-67
2022/01/18 07:28:36;;;;;;;19.17;10.02;;;;;;;-0.91;100.00;98404.66;4980964;28;20141;-68
2022/01/18 07:31:01;;;;;;;20.48;12.18;;;;;;;-0.91;100.00;98410.84;4980257;28;20514;-68
2022/01/18 07:33:26;;;;;;;25.38;16.73;;;;;;;-0.69;100.00;98415.41;4973174;28;20042;-67
2022/01/18 07:35:52;;;;;;;36.78;23.83;;;;;;;-0.54;100.00;98415.59;4980843;28;20105;-66
2022/01/18 07:38:18;;;;;;;26.67;13.95;;;;;;;-0.02;100.00;98419.59;4975514;28;20042;-68
2022/01/18 07:40:46;;;;;;;30.38;17.85;;;;;;;0.27;100.00;98420.13;4979639;28;20104;-67
2022/01/18 07:43:15;;;;;;;25.25;14.57;;;;;;;0.48;100.00;98422.97;4974709;28;20038;-67
2022/01/18 07:45:42;;;;;;;;;;;;;;;0.72;100.00;98412.59;4981166;28;20042;-67
2022/01/18 07:48:08;;;;;;;28.35;15.02;;;;;;;0.89;100.00;98432.16;4976159;28;19914;-66
2022/01/18 07:50:33;;;;;;;23.30;13.48;;;;;;;1.32;100.00;98438.31;4981217;28;20053;-67
2022/01/18 07:52:59;;;;;;;21.38;13.43;;;;;;;1.65;100.00;98438.16;4981042;28;20117;-67
2022/01/18 07:55:25;;;;;;;21.60;11.30;;;;;;;1.90;100.00;98434.69;4973639;28;20050;-67
2022/01/18 07:57:50;;;;;;;24.10;11.70;;;;;;;2.09;100.00;98437.72;4983931;28;20042;-67
2022/01/18 08:00:17;;;;;;;23.50;11.35;;;;;;;2.16;100.00;98430.16;4978591;28;20535;-66
2022/01/18 08:02:42;;;;;;;19.83;10.80;;;;;;;2.32;100.00;98435.53;4967881;28;20141;-67
2022/01/18 08:05:10;;;;;;;22.80;12.20;;;;;;;1.97;100.00;98439.84;4981972;28;20050;-66
2022/01/18 08:07:36;;;;;;;20.73;12.30;;;;;;;1.77;100.00;98440.63;4995544;28;20053;-66
2022/01/18 08:10:03;;;;;;;21.98;12.95;;;;;;;1.56;100.00;98443.25;4988906;28;20046;-66
2022/01/18 08:12:28;;;;;;;27.38;18.40;;;;;;;1.48;100.00;98441.88;4981595;28;20137;-66
2022/01/18 08:15:00;;;;;;;21.80;11.65;;;;;;;1.57;100.00;98450.28;4984475;28;20530;-67
2022/01/18 08:17:25;;;;;;;18.95;11.35;;;;;;;1.99;100.00;98448.50;4976215;28;20053;-67
2022/01/18 08:19:51;;;;;;;19.00;10.52;;;;;;;2.23;100.00;98452.31;4983321;28;20046;-67
2022/01/18 08:22:16;;;;;;;16.75;9.07;;;;;;;2.50;100.00;98453.94;4977870;28;20057;-67
2022/01/18 08:24:42;;;;;;;19.05;8.93;;;;;;;2.50;100.00;98456.63;4998865;28;20035;-67
2022/01/18 08:27:07;;;;;;;19.55;10.15;;;;;;;2.54;100.00;98459.59;4979676;28;20042;-67
2022/01/18 08:29:34;;;;;;;16.33;9.10;;;;;;;2.81;100.00;98465.56;4984418;28;20042;-68
2022/01/18 08:31:59;;;;;;;16.60;8.48;;;;;;;2.96;100.00;98467.44;4982826;28;20038;-67
2022/01/18 08:34:24;;;;;;;17.08;9.20;;;;;;;2.99;100.00;98466.06;4979364;28;20102;-68
2022/01/18 08:36:51;;;;;;;16.08;9.27;;;;;;;2.92;100.00;98476.34;4984039;28;20094;-68
2022/01/18 08:39:16;;;;;;;13.73;8.10;;;;;;;3.01;100.00;98472.03;4978118;28;20046;-66
2022/01/18 08:41:42;;;;;;;17.45;9.20;;;;;;;2.99;100.00;98469.59;4982760;28;20042;-67
2022/01/18 08:44:08;;;;;;;18.88;8.65;;;;;;;3.09;100.00;98473.38;4978670;28;20064;-68
2022/01/18 08:46:33;;;;;;;18.92;11.70;;;;;;;3.08;100.00;98466.31;4984992;28;20525;-67
2022/01/18 08:48:59;;;;;;;16.90;9.82;;;;;;;3.27;100.00;98474.66;4981652;28;20580;-67
2022/01/18 08:51:27;;;;;;;22.00;13.25;;;;;;;3.19;100.00;98474.16;4978721;28;20120;-67
2022/01/18 08:53:53;;;;;;;19.55;11.50;;;;;;;3.29;100.00;98475.19;4970163;28;20503;-67
2022/01/18 08:56:20;;;;;;;22.17;12.55;;;;;;;3.70;100.00;98472.34;4978148;28;20047;-67
2022/01/18 08:58:46;;;;;;;17.90;9.88;;;;;;;3.61;100.00;98469.41;4981212;28;20496;-67
2022/01/18 09:01:12;;;;;;;17.85;9.93;;;;;;;3.89;100.00;98469.78;4978382;28;20125;-67
2022/01/18 09:03:38;;;;;;;17.27;10.30;;;;;;;3.89;100.00;98472.50;4984406;28;20155;-67
2022/01/18 09:06:06;;;;;;;17.38;9.77;;;;;;;3.82;100.00;98473.63;4981415;28;20491;-64
2022/01/18 09:08:33;;;;;;;17.50;8.43;;;;;;;3.56;100.00;98474.84;4981836;28;20474;-66
2022/01/18 09:10:58;;;;;;;14.60;9.43;;;;;;;3.29;100.00;98462.47;4991844;28;20049;-66
2022/01/18 09:13:24;;;;;;;17.45;9.00;;;;;;;3.22;100.00;98484.44;4986670;28;20053;-67
2022/01/18 09:15:50;;;;;;;16.33;8.35;;;;;;;3.23;100.00;98477.91;4985793;28;20046;-66
2022/01/18 09:18:16;;;;;;;15.00;8.45;;;;;;;3.23;100.00;98482.53;4977602;28;20043;-66
2022/01/18 09:20:42;;;;;;;16.00;8.40;;;;;;;3.18;100.00;98482.53;4982571;28;20379;-67
2022/01/18 09:23:07;;;;;;;17.52;8.43;;;;;;;2.96;100.00;98485.56;4976906;28;20042;-67
2022/01/18 09:25:34;;;;;;;15.57;8.55;;;;;;;2.85;100.00;98479.34;4981820;28;20050;-65
2022/01/18 09:27:59;;;;;;;21.70;13.43;;;;;;;2.87;100.00;98483.41;4979270;28;20038;-67
2022/01/18 09:30:27;;;;;;;15.95;8.38;;;;;;;2.91;100.00;98482.88;4978048;28;20046;-66
2022/01/18 09:32:54;;;;;;;14.38;7.30;;;;;;;2.89;100.00;98490.44;4982098;28;20057;-67
2022/01/18 09:35:20;;;;;;;14.48;8.15;;;;;;;2.78;100.00;98487.75;4980983;28;20097;-67
2022/01/18 09:37:46;;;;;;;15.18;8.05;;;;;;;2.71;100.00;98491.81;4988080;28;20050;-66
2022/01/18 09:40:15;;;;;;;14.90;8.48;;;;;;;2.73;100.00;98485.03;4971487;28;20097;-67
2022/01/18 09:42:43;;;;;;;18.83;8.40;;;;;;;2.75;100.00;98503.72;4979134;28;20081;-68
2022/01/18 09:45:16;;;;;;;15.32;8.38;;;;;;;2.71;100.00;98494.53;4974119;28;20049;-67
2022/01/18 09:47:44;;;;;;;19.15;8.50;;;;;;;2.64;100.00;98492.09;4983094;28;20049;-67
2022/01/18 09:50:12;;;;;;;14.40;7.45;;;;;;;2.70;100.00;98493.69;4973488;28;20431;-67
2022/01/18 09:52:38;;;;;;;15.23;8.18;;;;;;;2.66;100.00;98493.41;4982371;28;20129;-67
2022/01/18 09:55:07;;;;;;;12.55;7.55;;;;;;;2.65;100.00;98493.72;4979691;28;20090;-67
2022/01/18 09:57:34;;;;;;;14.52;8.55;;;;;;;2.72;100.00;98493.41;4977374;28;20053;-66
2022/01/18 09:59:59;;;;;;;15.57;8.07;;;;;;;2.72;100.00;98488.00;4972251;28;20046;-67
2022/01/18 10:02:25;;;;;;;17.10;9.48;;;;;;;2.79;100.00;98485.84;4956336;28;20051;-67
2022/01/18 10:04:53;;;;;;;20.33;9.70;;;;;;;2.68;100.00;98479.63;4977657;28;20045;-68
2022/01/18 10:07:33;;;;;;;17.33;9.40;;;;;;;2.89;100.00;98488.56;4975590;28;20042;-67
2022/01/18 10:10:01;;;;;;;18.15;10.27;;;;;;;2.82;100.00;98486.09;4971472;28;20043;-67
2022/01/18 10:12:27;;;;;;;18.13;9.50;;;;;;;2.71;100.00;98481.00;4974595;28;20053;-67
2022/01/18 10:14:54;;;;;;;27.52;12.10;;;;;;;2.74;100.00;98483.13;4976105;28;20384;-67
2022/01/18 10:17:39;;;;;;;18.17;9.48;;;;;;;2.72;100.00;98475.31;4967028;28;20358;-67
2022/01/18 10:20:07;;;;;;;28.48;15.38;;;;;;;2.74;100.00;98478.56;4969430;28;20043;-64
2022/01/18 10:22:43;;;;;;;21.95;10.43;;;;;;;2.85;100.00;98473.94;4970968;28;20104;-67
2022/01/18 10:25:14;;;;;;;19.05;9.93;;;;;;;2.84;100.00;98473.13;4966520;28;20085;-67
2022/01/18 10:27:39;;;;;;;16.88;9.05;;;;;;;2.74;100.00;98481.25;4952139;28;20074;-66
2022/01/18 10:30:08;;;;;;;17.00;8.80;;;;;;;2.76;100.00;98473.69;4968032;28;20074;-66
2022/01/18 10:32:39;;;;;;;19.10;10.95;;;;;;;2.73;100.00;98465.28;4965715;28;20050;-66
2022/01/18 10:35:08;;;;;;;18.80;10.25;;;;;;;2.73;100.00;98471.50;4968227;28;20042;-66
2022/01/18 10:37:35;;;;;;;19.35;10.25;;;;;;;2.72;100.00;98463.66;4977913;28;20078;-65
2022/01/18 10:40:16;;;;;;;16.83;9.48;;;;;;;2.73;100.00;98465.28;4999947;28;20038;-65
2022/01/18 10:42:46;;;;;;;17.13;10.63;;;;;;;2.75;100.00;98463.13;4999320;28;20076;-65
2022/01/18 10:45:14;;;;;;;22.08;12.82;;;;;;;2.77;100.00;98458.25;4994307;28;20403;-65
2022/01/18 10:48:12;;;;;;;15.55;9.40;;;;;;;2.76;100.00;98454.75;5001611;28;20121;-65
2022/01/18 10:50:40;;;;;;;17.42;9.00;;;;;;;2.79;100.00;98450.66;4975738;28;20590;-65
2022/01/18 10:53:21;;;;;;;15.00;8.30;;;;;;;2.83;100.00;98449.06;4975160;28;20662;-66
2022/01/18 10:55:50;;;;;;;14.07;8.23;;;;;;;2.80;100.00;98444.19;4986631;28;20368;-66
2022/01/18 10:58:19;;;;;;;19.50;12.20;;;;;;;3.02;100.00;98443.88;4972946;28;20046;-66
2022/01/18 11:00:45;;;;;;;15.30;8.88;;;;;;;2.82;100.00;98429.28;4981808;28;20140;-66
2022/01/18 11:03:11;;;;;;;14.10;7.97;;;;;;;2.86;100.00;98437.66;4977531;28;20403;-66
2022/01/18 11:05:39;;;;;;;17.52;9.45;;;;;;;2.79;100.00;98435.25;4984639;28;20038;-67
2022/01/18 11:08:06;;;;;;;16.35;8.43;;;;;;;2.92;100.00;98439.28;4975578;28;20049;-66
2022/01/18 11:10:41;;;;;;;20.80;9.90;;;;;;;3.03;100.00;98434.66;4978710;28;20043;-66
2022/01/18 11:13:11;;;;;;;15.38;8.82;;;;;;;3.12;100.00;98430.31;4973670;28;20031;-66
2022/01/18 11:15:41;;;;;;;19.23;9.52;;;;;;;2.95;100.00;98425.19;4967629;28;20496;-65
2022/01/18 11:18:24;;;;;;;17.02;10.75;;;;;;;2.77;100.00;98425.78;4967903;28;20054;-65
2022/01/18 11:20:49;;;;;;;15.48;8.88;;;;;;;2.81;100.00;98410.59;4977664;28;20516;-66
2022/01/18 11:23:17;;;;;;;16.58;8.35;;;;;;;2.84;100.00;98412.78;4972654;28;20070;-66
2022/01/18 11:25:43;;;;;;;18.58;11.02;;;;;;;2.80;100.00;98409.00;4971635;28;20449;-65
2022/01/18 11:28:10;;;;;;;23.02;10.63;;;;;;;2.90;100.00;98411.69;4963137;28;20093;-65
2022/01/18 11:30:39;;;;;;;15.52;7.97;;;;;;;2.87;99.22;98407.63;4958410;28;20116;-65
2022/01/18 11:33:07;;;;;;;18.42;9.15;;;;;;;2.91;100.00;98396.25;4966607;28;20045;-65
2022/01/18 11:36:04;;;;;;;18.77;8.52;;;;;;;2.94;100.00;98393.00;4971726;28;20050;-65
2022/01/18 11:38:41;;;;;;;16.40;8.23;;;;;;;2.97;100.00;98400.56;4980051;28;20050;-67
2022/01/18 11:41:20;;;;;;;15.07;8.88;;;;;;;2.95;98.89;98400.03;4975689;28;20046;-66
2022/01/18 11:43:46;;;;;;;22.27;11.25;;;;;;;3.22;99.37;98397.78;4974149;28;20067;-67
2022/01/18 11:46:31;;;;;;;16.70;9.82;;;;;;;2.96;99.17;98402.47;4971690;28;20076;-66
2022/01/18 11:49:14;;;;;;;17.30;9.38;;;;;;;2.83;99.78;98398.44;4973929;28;20507;-66
2022/01/18 11:51:54;;;;;;;16.38;9.10;;;;;;;3.03;99.99;98407.59;4982198;28;20510;-68
2022/01/18 11:57:03;;;;;;;12.65;7.60;;;;;;;2.90;98.16;98397.34;4977372;28;20047;-66
2022/01/18 11:59:38;;;;;;;16.70;7.78;;;;;;;2.97;98.30;98395.97;4971078;28;20051;-68
2022/01/18 12:02:05;;;;;;;15.75;8.85;;;;;;;2.80;98.84;98401.69;4975325;28;20104;-67
2022/01/18 12:07:31;;;;;;;15.70;8.57;;;;;;;2.85;98.86;98393.56;4953947;28;20063;-67
2022/01/18 12:09:57;;;;;;;16.20;8.57;;;;;;;2.94;99.08;98387.59;4956744;28;20404;-67
2022/01/18 12:12:45;;;;;;;16.48;8.82;;;;;;;2.97;99.80;98385.16;4946707;28;20505;-67
2022/01/18 12:15:17;;;;;;;14.65;8.00;;;;;;;3.02;98.50;98387.81;4973570;28;20043;-67
2022/01/18 12:17:53;;;;;;;13.32;7.88;;;;;;;3.07;96.79;98389.72;4980452;28;20050;-67
2022/01/18 12:20:43;;;;;;;14.63;8.55;;;;;;;3.08;97.28;98395.91;4975160;28;20141;-67
2022/01/18 12:23:12;;;;;;;13.40;7.47;;;;;;;3.00;96.59;98384.56;4973817;28;20062;-67
2022/01/18 12:25:58;;;;;;;13.15;7.65;;;;;;;3.12;95.64;98383.47;4979852;28;20058;-67
2022/01/18 12:34:36;;;;;;;15.27;7.40;;;;;;;3.36;93.85;98379.03;4952755;28;20419;-67
2022/01/18 12:37:24;;;;;;;14.52;8.63;;;;;;;3.26;94.13;98379.09;4991065;28;20050;-67
2022/01/18 12:39:49;;;;;;;13.63;7.15;;;;;;;3.11;93.67;98369.09;4970284;28;20046;-66
2022/01/18 12:44:20;;;;;;;12.75;6.68;;;;;;;3.15;92.78;98364.78;4931511;28;20050;-67
2022/01/18 12:45:10;;;;;;;9.98;6.32;;;;;;;3.13;94.23;98353.41;4981723;28;20050;-65